Terminal Aerodrome Forecast
Issued by NWS Albany, NY

Home | Current Version | Previous Version | Text Only | Print | Product List | Glossary On
Versions: 1 2 3 4 5 6 7 8 9 10 11 12 13 14 15 16 17 18 19
000
FTUS41 KALY 291130
TAFGFL
TAF
KGFL 291130Z 2912/3012 17005KT 6SM -RA BR OVC060
     FM291400 15004KT 4SM RA BR BKN020 OVC040
     FM291600 13006KT 3SM RA BR SCT008 OVC015
     FM292100 12005KT P6SM VCSH BKN020
     FM300900 15005KT 6SM -DZ BR BKN015=

USA.gov is the U.S. government's official web portal to all federal, state and local government web resources and services.